Time;durP1;ratioP1;P1;durP2;ratioP2;P2;SDS_P1;SDS_P2;PMS_P1;PMS_P2;Temp;Humidity;BMP_temperature;BMP_pressure;BME280_temperature;BME280_humidity;BME280_pressure;Samples;Min_cycle;Max_cycle;Signal;HPM_P1;HPM_P2
2023/11/28 00:00:09;;;;;;;25.38;14.80;;;;;;;4.50;100.00;98551.34;5093630;28;20416;-43
2023/11/28 00:02:39;;;;;;;27.67;14.75;;;;;;;4.42;100.00;98545.69;5093767;28;20048;-42
2023/11/28 00:05:09;;;;;;;25.95;14.55;;;;;;;4.42;100.00;98536.94;5092649;28;20531;-43
2023/11/28 00:07:37;;;;;;;28.83;15.57;;;;;;;4.37;100.00;98529.31;5092297;28;20052;-45
2023/11/28 00:10:08;;;;;;;26.50;15.07;;;;;;;4.48;100.00;98524.19;5093257;28;20044;-42
2023/11/28 00:12:36;;;;;;;31.65;15.30;;;;;;;4.48;100.00;98513.63;5093115;28;20052;-43
2023/11/28 00:15:05;;;;;;;23.38;14.65;;;;;;;4.31;100.00;98511.19;5092360;28;20139;-43
2023/11/28 00:17:33;;;;;;;25.67;15.23;;;;;;;4.38;100.00;98517.81;5092452;28;20059;-41
2023/11/28 00:20:02;;;;;;;23.15;14.32;;;;;;;3.99;100.00;98518.47;5092912;28;20172;-42
2023/11/28 00:22:35;;;;;;;27.23;15.40;;;;;;;4.10;100.00;98516.03;5092161;28;20400;-42
2023/11/28 00:25:04;;;;;;;25.95;15.15;;;;;;;4.16;100.00;98506.88;5093079;28;20083;-42
2023/11/28 00:27:33;;;;;;;27.05;15.02;;;;;;;4.18;100.00;98510.28;5093088;28;20043;-42
2023/11/28 00:30:01;;;;;;;26.92;15.45;;;;;;;4.38;100.00;98509.88;5092684;28;20480;-41
2023/11/28 00:32:30;;;;;;;24.60;14.82;;;;;;;4.29;100.00;98499.91;5092615;28;20127;-42
2023/11/28 00:34:58;;;;;;;24.65;14.45;;;;;;;4.40;100.00;98494.78;5092478;28;20044;-43
2023/11/28 00:37:26;;;;;;;28.80;14.60;;;;;;;4.36;100.00;98489.81;5092854;28;20044;-40
2023/11/28 00:39:58;;;;;;;27.27;15.27;;;;;;;4.27;100.00;98485.94;5093001;28;20076;-43
2023/11/28 00:42:27;;;;;;;29.17;15.50;;;;;;;4.49;100.00;98486.28;5092565;28;20044;-48
2023/11/28 00:44:55;;;;;;;26.88;15.20;;;;;;;4.56;100.00;98474.41;5092705;28;20044;-42
2023/11/28 00:47:24;;;;;;;27.08;15.98;;;;;;;4.69;100.00;98478.88;5092341;28;20086;-42
2023/11/28 00:49:52;;;;;;;26.90;15.20;;;;;;;4.60;100.00;98472.41;5092058;28;20461;-41
2023/11/28 00:52:20;;;;;;;30.65;16.50;;;;;;;4.37;100.00;98458.03;5092397;28;20070;-42
2023/11/28 00:54:49;;;;;;;26.30;16.80;;;;;;;4.45;100.00;98455.75;5092106;28;20425;-42
2023/11/28 00:57:18;;;;;;;28.42;15.77;;;;;;;4.47;100.00;98455.66;5092418;28;20055;-42
2023/11/28 00:59:46;;;;;;;28.75;17.27;;;;;;;4.36;100.00;98458.97;5092530;28;20063;-42
2023/11/28 01:02:15;;;;;;;31.13;18.02;;;;;;;4.25;100.00;98448.25;5093057;28;20048;-42
2023/11/28 01:04:43;;;;;;;29.17;16.48;;;;;;;4.18;100.00;98445.16;5091804;28;20512;-42
2023/11/28 01:07:12;;;;;;;30.85;17.15;;;;;;;4.15;100.00;98432.16;5092110;28;20051;-42
2023/11/28 01:09:40;;;;;;;33.30;17.10;;;;;;;4.23;100.00;98434.28;5092573;28;20147;-43
2023/11/28 01:12:08;;;;;;;29.75;17.23;;;;;;;4.28;100.00;98426.94;5091895;28;20140;-42
2023/11/28 01:14:38;;;;;;;26.10;16.05;;;;;;;4.48;100.00;98426.50;5091798;28;20044;-42
2023/11/28 01:17:07;;;;;;;31.02;17.15;;;;;;;4.42;100.00;98418.13;5091102;28;20448;-43
2023/11/28 01:19:36;;;;;;;32.17;16.60;;;;;;;4.52;100.00;98420.06;5091885;28;20051;-42
2023/11/28 01:22:06;;;;;;;33.38;17.98;;;;;;;4.29;100.00;98411.00;5091911;28;20071;-44
2023/11/28 01:24:35;;;;;;;27.73;16.00;;;;;;;4.15;100.00;98400.50;5090551;28;20074;-42
2023/11/28 01:27:03;;;;;;;28.77;16.45;;;;;;;4.19;100.00;98388.78;5091448;28;20458;-41
2023/11/28 01:29:36;;;;;;;27.27;16.05;;;;;;;4.30;100.00;98388.09;5092009;28;20056;-42
2023/11/28 01:32:06;;;;;;;28.63;15.93;;;;;;;4.42;100.00;98387.28;5091754;28;20610;-42
2023/11/28 01:34:35;;;;;;;28.83;15.68;;;;;;;4.43;100.00;98375.78;5092001;28;20467;-45
2023/11/28 01:37:04;;;;;;;31.83;16.40;;;;;;;4.30;100.00;98372.25;5091831;28;20070;-41
2023/11/28 01:39:32;;;;;;;27.33;15.30;;;;;;;4.28;100.00;98375.00;5091912;28;20123;-42
2023/11/28 01:42:00;;;;;;;25.25;14.85;;;;;;;4.50;100.00;98363.88;5091718;28;20135;-43
2023/11/28 01:44:29;;;;;;;29.73;16.25;;;;;;;4.59;100.00;98355.38;5091508;28;20091;-41
2023/11/28 01:46:58;;;;;;;27.08;15.32;;;;;;;4.30;100.00;98351.16;5091562;28;20139;-42
2023/11/28 01:49:34;;;;;;;33.30;16.67;;;;;;;4.56;100.00;98352.94;5091888;28;20046;-42
2023/11/28 01:52:05;;;;;;;29.38;15.35;;;;;;;4.66;100.00;98354.97;5092210;28;20051;-43
2023/11/28 01:54:33;;;;;;;27.00;15.23;;;;;;;4.55;100.00;98335.41;5091559;28;20083;-42
2023/11/28 01:57:02;;;;;;;27.30;15.88;;;;;;;4.18;100.00;98325.56;5091381;28;20075;-42
2023/11/28 01:59:32;;;;;;;25.90;14.93;;;;;;;4.18;100.00;98325.56;5091748;28;20066;-41
2023/11/28 02:02:00;;;;;;;29.08;16.00;;;;;;;4.38;100.00;98322.47;5091435;28;20056;-43
2023/11/28 02:04:30;;;;;;;28.95;16.08;;;;;;;4.13;100.00;98322.34;5091299;28;20095;-43
2023/11/28 02:06:58;;;;;;;29.95;16.45;;;;;;;3.95;100.00;98309.38;5091564;28;20144;-43
2023/11/28 02:09:27;;;;;;;30.35;17.10;;;;;;;3.81;100.00;98306.81;5091697;28;20047;-41
2023/11/28 02:11:55;;;;;;;31.35;17.35;;;;;;;3.93;100.00;98295.47;5091305;28;20040;-43
2023/11/28 02:14:24;;;;;;;28.33;16.35;;;;;;;4.06;100.00;98287.63;5091311;28;20055;-43
2023/11/28 02:16:53;;;;;;;28.17;17.30;;;;;;;3.97;100.00;98281.16;5091659;28;20044;-43
2023/11/28 02:19:25;;;;;;;32.13;17.35;;;;;;;3.91;100.00;98278.88;5091207;28;20040;-41
2023/11/28 02:21:56;;;;;;;34.35;18.02;;;;;;;4.05;100.00;98283.25;5091379;28;20040;-42
2023/11/28 02:24:25;;;;;;;34.40;17.38;;;;;;;4.10;100.00;98272.44;5091442;28;20127;-42
2023/11/28 02:26:55;;;;;;;29.63;16.90;;;;;;;4.21;100.00;98273.41;5092642;28;20089;-42
2023/11/28 02:29:24;;;;;;;29.58;16.65;;;;;;;4.40;100.00;98267.75;5092268;28;20106;-43
2023/11/28 02:31:52;;;;;;;29.58;17.30;;;;;;;4.28;100.00;98263.31;5091672;28;20051;-41
2023/11/28 02:34:20;;;;;;;31.27;16.88;;;;;;;4.19;100.00;98261.28;5091045;28;20520;-41
2023/11/28 02:36:49;;;;;;;29.83;16.63;;;;;;;4.27;100.00;98262.47;5091708;28;20105;-42
2023/11/28 02:39:17;;;;;;;31.25;17.58;;;;;;;4.46;100.00;98251.53;5091253;28;20469;-42
2023/11/28 02:41:46;;;;;;;31.23;16.40;;;;;;;4.29;100.00;98247.38;5095091;28;20052;-43
2023/11/28 02:44:17;;;;;;;29.20;16.45;;;;;;;4.11;100.00;98255.66;5093629;28;20083;-42
2023/11/28 02:46:45;;;;;;;29.67;16.52;;;;;;;4.25;100.00;98242.41;5094637;28;20102;-43
2023/11/28 02:49:13;;;;;;;28.00;17.00;;;;;;;4.06;100.00;98239.28;5095012;28;20048;-42
2023/11/28 02:51:41;;;;;;;30.70;17.52;;;;;;;4.00;100.00;98243.16;5094419;28;20043;-43
2023/11/28 02:54:09;;;;;;;35.17;19.98;;;;;;;4.11;100.00;98235.38;5093342;28;20052;-41
2023/11/28 02:56:38;;;;;;;31.15;19.58;;;;;;;3.89;100.00;98230.66;5094629;28;20044;-43
2023/11/28 02:59:06;;;;;;;31.15;17.48;;;;;;;4.03;100.00;98227.97;5094260;28;20477;-42
2023/11/28 03:01:36;;;;;;;30.10;18.38;;;;;;;3.79;100.00;98219.03;5094296;28;20081;-43
2023/11/28 03:04:05;;;;;;;32.22;18.75;;;;;;;3.80;100.00;98226.00;5094273;28;20055;-43
2023/11/28 03:06:33;;;;;;;32.25;18.20;;;;;;;3.91;100.00;98220.00;5094106;28;20062;-42
2023/11/28 03:09:01;;;;;;;31.13;17.65;;;;;;;4.00;100.00;98217.63;5094544;28;20055;-42
2023/11/28 03:11:29;;;;;;;30.98;18.40;;;;;;;4.04;100.00;98218.25;5094585;28;20051;-42
2023/11/28 03:13:58;;;;;;;33.08;18.27;;;;;;;4.05;100.00;98205.91;5094077;28;20154;-42
2023/11/28 03:16:26;;;;;;;36.20;18.63;;;;;;;4.03;100.00;98211.28;5094286;28;20052;-42
2023/11/28 03:18:56;;;;;;;34.63;18.42;;;;;;;4.14;100.00;98202.66;5094368;28;20457;-42
2023/11/28 03:21:25;;;;;;;29.85;18.83;;;;;;;4.07;100.00;98194.34;5094393;28;20044;-42
2023/11/28 03:23:55;;;;;;;33.65;18.67;;;;;;;3.95;100.00;98198.59;5095173;28;20513;-42
2023/11/28 03:26:23;;;;;;;34.17;18.88;;;;;;;4.06;100.00;98197.91;5095374;28;20044;-41
2023/11/28 03:28:52;;;;;;;32.78;18.77;;;;;;;4.12;100.00;98194.00;5095407;28;20048;-43
2023/11/28 03:31:20;;;;;;;33.88;19.33;;;;;;;4.20;100.00;98186.44;5095262;28;20131;-41
2023/11/28 03:33:51;;;;;;;33.10;18.85;;;;;;;4.25;100.00;98184.34;5094389;28;20165;-44
2023/11/28 03:36:21;;;;;;;32.15;18.88;;;;;;;4.22;100.00;98189.81;5093972;28;20497;-42
2023/11/28 03:38:53;;;;;;;31.02;18.27;;;;;;;4.07;100.00;98188.22;5093897;28;20457;-43
2023/11/28 03:41:21;;;;;;;34.05;19.38;;;;;;;4.07;100.00;98177.66;5094431;28;20461;-43
2023/11/28 03:43:53;;;;;;;33.70;19.27;;;;;;;4.21;100.00;98177.56;5094683;28;20412;-43
2023/11/28 03:46:21;;;;;;;32.17;18.92;;;;;;;4.31;100.00;98176.00;5094802;28;20159;-43
2023/11/28 03:48:50;;;;;;;32.83;18.60;;;;;;;4.34;100.00;98177.56;5094453;28;20056;-43
2023/11/28 03:51:18;;;;;;;33.65;19.25;;;;;;;4.30;100.00;98176.94;5093321;28;20123;-44
2023/11/28 03:53:48;;;;;;;32.65;18.92;;;;;;;4.17;100.00;98168.19;5093728;28;20051;-42
2023/11/28 03:56:17;;;;;;;33.05;19.15;;;;;;;3.97;100.00;98158.97;5093696;28;20130;-43
2023/11/28 03:58:45;;;;;;;36.17;20.13;;;;;;;4.22;100.00;98160.78;5094309;28;20044;-44
2023/11/28 04:01:14;;;;;;;32.90;19.63;;;;;;;4.28;100.00;98160.38;5094036;28;20098;-42
2023/11/28 04:03:45;;;;;;;32.38;18.52;;;;;;;4.34;100.00;98154.66;5094762;28;20512;-42
2023/11/28 04:06:15;;;;;;;35.80;19.70;;;;;;;4.40;100.00;98148.13;5094683;28;20043;-43
2023/11/28 04:08:44;;;;;;;34.05;20.25;;;;;;;4.16;100.00;98154.13;5094039;28;20079;-42
2023/11/28 04:11:13;;;;;;;34.17;20.60;;;;;;;4.14;100.00;98149.88;5093552;28;20048;-43
2023/11/28 04:13:42;;;;;;;39.25;20.60;;;;;;;4.19;100.00;98145.16;5093480;28;20050;-43
2023/11/28 04:16:15;;;;;;;36.17;20.02;;;;;;;4.23;100.00;98133.44;5093009;28;20495;-42
2023/11/28 04:18:44;;;;;;;35.42;21.05;;;;;;;4.03;100.00;98133.00;5093186;28;20139;-42
2023/11/28 04:21:15;;;;;;;37.22;20.58;;;;;;;4.06;100.00;98131.13;5093144;28;20408;-42
2023/11/28 04:23:44;;;;;;;36.85;21.63;;;;;;;3.87;100.00;98126.22;5092883;28;20498;-42
2023/11/28 04:26:14;;;;;;;37.95;21.23;;;;;;;4.11;100.00;98123.72;5093231;28;20135;-42
2023/11/28 04:28:42;;;;;;;40.88;22.10;;;;;;;4.17;100.00;98120.69;5092920;28;20076;-44
2023/11/28 04:31:17;;;;;;;42.22;23.70;;;;;;;4.12;100.00;98112.22;5093068;28;20421;-43
2023/11/28 04:33:46;;;;;;;39.15;22.63;;;;;;;4.31;100.00;98112.66;5092750;28;20047;-42
2023/11/28 04:36:15;;;;;;;41.03;23.88;;;;;;;4.20;100.00;98115.19;5092760;28;20112;-43
2023/11/28 04:38:44;;;;;;;43.58;24.42;;;;;;;4.30;100.00;98117.09;5093241;28;20055;-42
2023/11/28 04:41:14;;;;;;;43.38;25.63;;;;;;;4.13;100.00;98108.63;5093108;28;20052;-42
2023/11/28 04:43:43;;;;;;;37.28;21.63;;;;;;;3.96;100.00;98115.91;5092389;28;20067;-44
2023/11/28 04:46:11;;;;;;;40.30;22.92;;;;;;;4.10;100.00;98112.31;5092733;28;20124;-42
2023/11/28 04:48:39;;;;;;;41.45;23.33;;;;;;;4.16;100.00;98095.25;5093128;28;20125;-42
2023/11/28 04:51:08;;;;;;;40.22;21.90;;;;;;;3.90;100.00;98102.28;5092494;28;20381;-43
2023/11/28 04:53:37;;;;;;;39.53;22.38;;;;;;;3.99;100.00;98091.94;5092305;28;20048;-43
2023/11/28 04:56:06;;;;;;;41.83;22.90;;;;;;;4.14;100.00;98087.41;5091781;28;20055;-42
2023/11/28 04:58:36;;;;;;;40.45;22.75;;;;;;;3.97;100.00;98090.38;5092446;28;20048;-42
2023/11/28 05:01:05;;;;;;;39.60;23.08;;;;;;;4.18;100.00;98088.91;5092387;28;20089;-43
2023/11/28 05:03:36;;;;;;;39.60;21.77;;;;;;;4.24;100.00;98087.63;5092339;28;20059;-43
2023/11/28 05:06:06;;;;;;;38.53;21.65;;;;;;;4.12;100.00;98084.03;5092168;28;20048;-43
2023/11/28 05:08:34;;;;;;;39.55;22.35;;;;;;;4.19;100.00;98072.13;5091901;28;20044;-42
2023/11/28 05:11:05;;;;;;;39.00;21.67;;;;;;;4.30;100.00;98074.03;5092198;28;20164;-42
2023/11/28 05:13:36;;;;;;;37.88;21.10;;;;;;;4.17;100.00;98066.13;5091949;28;20477;-43
2023/11/28 05:16:05;;;;;;;36.38;20.90;;;;;;;4.17;100.00;98070.53;5092016;28;20044;-42
2023/11/28 05:18:33;;;;;;;38.78;21.50;;;;;;;4.16;100.00;98066.22;5091847;28;20040;-47
2023/11/28 05:21:01;;;;;;;39.35;21.00;;;;;;;4.18;100.00;98053.75;5091674;28;20108;-43
2023/11/28 05:23:30;;;;;;;38.15;21.65;;;;;;;4.29;100.00;98056.50;5092351;28;20044;-43
2023/11/28 05:26:01;;;;;;;39.60;22.58;;;;;;;4.17;100.00;98049.44;5092930;28;20129;-44
2023/11/28 05:28:29;;;;;;;43.38;21.83;;;;;;;4.22;100.00;98052.59;5092225;28;20549;-43
2023/11/28 05:30:59;;;;;;;38.22;21.42;;;;;;;4.26;100.00;98043.53;5092410;28;20052;-43
2023/11/28 05:33:27;;;;;;;36.45;20.80;;;;;;;4.07;100.00;98043.94;5074378;28;20044;-42
2023/11/28 05:35:56;;;;;;;39.45;21.95;;;;;;;4.05;100.00;98044.97;5071787;28;20109;-43
2023/11/28 05:38:24;;;;;;;42.45;23.55;;;;;;;4.22;100.00;98042.03;5072113;28;20053;-42
2023/11/28 05:40:53;;;;;;;46.55;24.92;;;;;;;4.23;100.00;98038.44;5071792;28;20059;-43
2023/11/28 05:43:21;;;;;;;50.85;26.15;;;;;;;4.11;100.00;98039.28;5071420;28;20130;-41
2023/11/28 05:45:53;;;;;;;53.33;28.77;;;;;;;4.02;100.00;98028.41;5072186;28;20045;-42
2023/11/28 05:48:23;;;;;;;65.18;31.10;;;;;;;3.83;100.00;98041.19;5071941;28;20489;-43
2023/11/28 05:50:52;;;;;;;52.85;28.27;;;;;;;3.96;100.00;98028.84;5071444;28;20113;-42
2023/11/28 05:53:21;;;;;;;57.78;29.75;;;;;;;4.11;100.00;98034.00;5071548;28;20048;-44
2023/11/28 05:55:50;;;;;;;64.18;30.50;;;;;;;4.06;100.00;98020.31;5071429;28;20052;-44
2023/11/28 05:58:19;;;;;;;56.42;29.77;;;;;;;4.19;100.00;98019.34;5070481;28;20117;-43
2023/11/28 06:00:49;;;;;;;56.20;28.63;;;;;;;4.35;100.00;98026.22;5071508;28;20052;-43
2023/11/28 06:03:18;;;;;;;67.07;31.92;;;;;;;4.25;100.00;98028.66;5071388;28;20135;-43
2023/11/28 06:05:49;;;;;;;60.97;30.48;;;;;;;4.37;100.00;98024.28;5072006;28;20631;-42
2023/11/28 06:08:17;;;;;;;53.15;28.85;;;;;;;4.18;100.00;98020.31;5072140;28;20101;-43
2023/11/28 06:10:45;;;;;;;50.35;26.65;;;;;;;4.29;100.00;98016.91;5071756;28;20079;-43
2023/11/28 06:13:13;;;;;;;47.83;26.27;;;;;;;4.40;100.00;98009.06;5071810;28;20075;-44
2023/11/28 06:15:42;;;;;;;47.17;26.25;;;;;;;4.25;100.00;98010.19;5075123;28;20080;-42
2023/11/28 06:18:10;;;;;;;49.75;26.85;;;;;;;4.29;100.00;98016.91;5075541;28;20076;-44
2023/11/28 06:20:39;;;;;;;48.45;25.40;;;;;;;4.46;100.00;98016.56;5075886;28;20044;-43
2023/11/28 06:23:12;;;;;;;44.03;23.67;;;;;;;4.09;100.00;98013.03;5075370;28;20063;-42
2023/11/28 06:25:44;;;;;;;37.55;21.30;;;;;;;3.98;100.00;98012.94;5075213;28;20049;-42
2023/11/28 06:28:13;;;;;;;40.45;22.85;;;;;;;4.12;100.00;98009.31;5075113;28;20056;-43
2023/11/28 06:30:41;;;;;;;35.83;21.77;;;;;;;4.34;100.00;98004.22;5075540;28;20044;-42
2023/11/28 06:33:10;;;;;;;37.67;20.70;;;;;;;4.25;100.00;98000.47;5075342;28;20119;-42
2023/11/28 06:35:38;;;;;;;34.08;20.92;;;;;;;4.28;100.00;97999.38;5074674;28;20049;-42
2023/11/28 06:38:07;;;;;;;40.13;20.67;;;;;;;4.36;100.00;98001.50;5075025;28;20044;-43
2023/11/28 06:40:37;;;;;;;36.10;19.80;;;;;;;4.24;100.00;98003.19;5075155;28;20040;-42
2023/11/28 06:43:06;;;;;;;34.75;19.77;;;;;;;4.33;100.00;98007.81;5073688;28;20106;-41
2023/11/28 06:45:35;;;;;;;30.73;19.35;;;;;;;4.43;100.00;98008.84;5075147;28;20454;-42
2023/11/28 06:48:04;;;;;;;32.85;20.38;;;;;;;4.31;100.00;98001.81;5074999;28;20044;-41
2023/11/28 06:50:32;;;;;;;36.30;20.45;;;;;;;4.46;100.00;97997.25;5074564;28;20654;-42
2023/11/28 06:53:00;;;;;;;32.72;18.98;;;;;;;4.60;100.00;98002.38;5074345;28;20047;-43
2023/11/28 06:55:29;;;;;;;33.40;18.88;;;;;;;4.68;100.00;98002.69;5074405;28;20390;-41
2023/11/28 06:57:59;;;;;;;32.83;19.38;;;;;;;4.64;100.00;97993.31;5075154;28;20040;-41
2023/11/28 07:00:27;;;;;;;32.60;19.75;;;;;;;4.46;100.00;97976.97;5074696;28;20052;-44
2023/11/28 07:02:55;;;;;;;33.40;19.25;;;;;;;4.52;100.00;97978.31;5074663;28;20046;-42
2023/11/28 07:05:24;;;;;;;31.52;19.25;;;;;;;4.55;100.00;97976.31;5074286;28;20122;-43
2023/11/28 07:07:52;;;;;;;35.22;20.42;;;;;;;4.48;100.00;97980.34;5074462;28;20071;-42
2023/11/28 07:10:21;;;;;;;34.10;19.38;;;;;;;4.56;100.00;97977.16;5074161;28;20555;-48
2023/11/28 07:12:49;;;;;;;33.80;19.10;;;;;;;4.47;100.00;97975.19;5074683;28;20044;-42
2023/11/28 07:15:19;;;;;;;37.53;20.35;;;;;;;4.42;100.00;97974.66;5074878;28;20044;-43
2023/11/28 07:17:47;;;;;;;34.55;21.05;;;;;;;4.56;100.00;97977.16;5074328;28;20128;-41
2023/11/28 07:20:16;;;;;;;42.47;21.98;;;;;;;4.58;100.00;97977.88;5074517;28;20048;-43
2023/11/28 07:22:44;;;;;;;37.67;21.80;;;;;;;4.48;100.00;97980.34;5074371;28;20139;-41
2023/11/28 07:25:14;;;;;;;42.42;24.58;;;;;;;4.50;100.00;97973.16;5067070;28;20052;-46
2023/11/28 07:27:43;;;;;;;42.20;24.17;;;;;;;4.65;100.00;97965.09;5063447;28;20100;-42
2023/11/28 07:30:11;;;;;;;47.33;24.60;;;;;;;4.77;100.00;97966.84;5062848;28;20048;-41
2023/11/28 07:32:41;;;;;;;43.92;24.75;;;;;;;4.81;100.00;97965.66;5064364;28;20037;-43
2023/11/28 07:35:10;;;;;;;53.42;28.27;;;;;;;4.68;100.00;97970.16;5064062;28;20122;-43
2023/11/28 07:37:39;;;;;;;52.83;29.33;;;;;;;4.50;100.00;97970.50;5061775;28;20044;-46
2023/11/28 07:40:09;;;;;;;51.78;27.75;;;;;;;4.57;100.00;97963.00;5053950;28;20052;-42
2023/11/28 07:42:37;;;;;;;52.70;29.02;;;;;;;4.53;100.00;97962.38;5052391;28;20049;-41
2023/11/28 07:45:11;;;;;;;49.03;27.15;;;;;;;4.60;100.00;97960.97;5053738;28;20041;-42
2023/11/28 07:47:41;;;;;;;46.22;26.17;;;;;;;4.66;100.00;97949.13;5054093;28;20049;-41
2023/11/28 07:50:10;;;;;;;50.50;27.27;;;;;;;4.80;100.00;97943.69;5053399;28;20056;-44
2023/11/28 07:52:38;;;;;;;53.53;27.50;;;;;;;4.71;100.00;97943.50;5053743;28;20159;-42
2023/11/28 07:55:08;;;;;;;47.25;26.00;;;;;;;4.55;100.00;97949.91;5053764;28;20101;-42
2023/11/28 07:57:37;;;;;;;48.70;26.50;;;;;;;4.68;100.00;97946.38;5053591;28;20410;-50
2023/11/28 08:00:07;;;;;;;48.78;26.15;;;;;;;4.84;100.00;97955.72;5053067;28;20049;-43
2023/11/28 08:02:36;;;;;;;50.60;27.73;;;;;;;4.91;100.00;97950.81;5053546;28;20186;-42
2023/11/28 08:05:07;;;;;;;52.08;26.75;;;;;;;4.96;100.00;97951.34;5053064;28;20498;-43
2023/11/28 08:07:36;;;;;;;53.47;27.30;;;;;;;5.07;100.00;97953.19;5053347;28;20056;-44
2023/11/28 08:10:10;;;;;;;49.75;26.77;;;;;;;5.04;100.00;97948.97;5053169;28;20406;-42
2023/11/28 08:12:38;;;;;;;49.60;27.13;;;;;;;5.02;100.00;97942.97;5051628;28;20053;-42
2023/11/28 08:15:08;;;;;;;45.85;25.38;;;;;;;5.09;100.00;97930.13;5053081;28;20044;-42
2023/11/28 08:17:38;;;;;;;45.97;25.20;;;;;;;5.02;100.00;97927.09;5052573;28;20486;-42
2023/11/28 08:20:10;;;;;;;45.45;23.90;;;;;;;5.07;100.00;97932.88;5053105;28;20135;-42
2023/11/28 08:22:39;;;;;;;44.78;24.75;;;;;;;5.06;100.00;97933.84;5052490;28;20464;-43
2023/11/28 08:25:11;;;;;;;43.30;23.38;;;;;;;5.17;100.00;97931.22;5052321;28;20092;-44
2023/11/28 08:27:39;;;;;;;41.00;22.38;;;;;;;5.23;100.00;97919.38;5052211;28;20045;-43
2023/11/28 08:30:08;;;;;;;36.60;21.20;;;;;;;5.14;100.00;97923.53;5052764;28;20072;-43
2023/11/28 08:32:38;;;;;;;38.90;21.60;;;;;;;5.00;100.00;97918.44;5053734;28;20045;-42
2023/11/28 08:35:12;;;;;;;38.97;21.13;;;;;;;5.21;100.00;97921.28;5052632;28;20436;-46
2023/11/28 08:37:40;;;;;;;36.55;21.30;;;;;;;5.05;100.00;97916.31;5051396;28;20182;-42
2023/11/28 08:40:13;;;;;;;39.75;22.17;;;;;;;5.23;100.00;97919.38;5052817;28;20044;-43
2023/11/28 08:42:41;;;;;;;37.97;22.20;;;;;;;5.18;100.00;97919.69;5052941;28;20110;-42
2023/11/28 08:45:10;;;;;;;38.95;22.60;;;;;;;5.13;100.00;97918.38;5052524;28;20076;-43
2023/11/28 08:47:41;;;;;;;38.50;22.60;;;;;;;5.29;100.00;97916.25;5052583;28;20067;-43
2023/11/28 08:50:15;;;;;;;37.35;22.63;;;;;;;5.13;100.00;97913.94;5052454;28;20045;-43
2023/11/28 08:52:43;;;;;;;;;;;;;;;5.11;100.00;97910.53;5052656;28;20042;-43
2023/11/28 08:55:11;;;;;;;39.53;22.85;;;;;;;5.18;100.00;97903.00;5052360;28;20022;-42
2023/11/28 08:57:42;;;;;;;39.63;22.77;;;;;;;5.22;100.00;97904.47;5052712;28;20087;-46
2023/11/28 09:00:14;;;;;;;38.95;22.77;;;;;;;5.38;100.00;97896.19;5052858;28;20053;-43
2023/11/28 09:02:44;;;;;;;43.20;23.40;;;;;;;5.41;100.00;97896.84;5052448;28;20053;-42
2023/11/28 09:05:14;;;;;;;42.88;23.27;;;;;;;5.50;100.00;97900.56;5052331;28;20045;-43
2023/11/28 09:07:49;;;;;;;39.47;23.15;;;;;;;5.49;100.00;97884.81;5052367;28;20056;-42
2023/11/28 09:10:17;;;;;;;39.63;22.92;;;;;;;5.58;100.00;97879.66;5052346;28;20521;-42
2023/11/28 09:12:47;;;;;;;40.10;23.38;;;;;;;5.72;100.00;97878.59;5052309;28;20049;-42
2023/11/28 09:15:16;;;;;;;39.40;21.98;;;;;;;5.79;100.00;97878.94;5051760;28;20135;-43
2023/11/28 09:17:45;;;;;;;34.72;21.58;;;;;;;5.88;100.00;97884.34;5051867;28;20056;-44
2023/11/28 09:20:17;;;;;;;38.25;21.17;;;;;;;5.70;100.00;97872.59;5052333;28;20494;-43
2023/11/28 09:22:47;;;;;;;36.85;21.98;;;;;;;5.60;100.00;97879.56;5052648;28;20048;-41
2023/11/28 09:25:16;;;;;;;36.17;21.80;;;;;;;5.75;100.00;97865.97;5052252;28;20060;-42
2023/11/28 09:27:46;;;;;;;39.45;21.92;;;;;;;5.69;100.00;97871.75;5051492;28;20045;-43
2023/11/28 09:30:15;;;;;;;37.60;22.10;;;;;;;5.83;100.00;97869.81;5052235;28;20052;-42
2023/11/28 09:32:43;;;;;;;35.67;21.25;;;;;;;5.75;100.00;97867.75;5051792;28;20049;-42
2023/11/28 09:35:12;;;;;;;35.35;21.38;;;;;;;5.98;100.00;97858.03;5051626;28;20049;-43
2023/11/28 09:37:42;;;;;;;38.80;22.55;;;;;;;6.01;100.00;97852.53;5051075;28;20044;-43
2023/11/28 09:40:11;;;;;;;41.08;23.25;;;;;;;6.10;100.00;97849.16;5051641;28;20045;-42
2023/11/28 09:42:47;;;;;;;45.40;24.70;;;;;;;5.68;100.00;97840.94;5051488;28;20478;-43
2023/11/28 09:45:18;;;;;;;42.25;24.77;;;;;;;5.85;100.00;97846.72;5051956;28;20065;-43
2023/11/28 09:47:48;;;;;;;43.33;24.50;;;;;;;5.83;100.00;97848.66;5052763;28;20106;-42
2023/11/28 09:50:21;;;;;;;42.67;24.48;;;;;;;5.96;100.00;97846.75;5056074;28;20053;-44
2023/11/28 09:52:51;;;;;;;42.75;24.80;;;;;;;6.01;100.00;97837.47;5055959;28;20108;-42
2023/11/28 09:55:20;;;;;;;43.30;25.25;;;;;;;6.13;100.00;97834.81;5056175;28;20343;-44
2023/11/28 09:57:49;;;;;;;42.60;25.27;;;;;;;6.27;100.00;97827.47;5055872;28;20053;-43
2023/11/28 10:00:19;;;;;;;44.30;25.17;;;;;;;6.16;100.00;97821.31;5055812;28;20405;-43
2023/11/28 10:02:53;;;;;;;41.85;24.60;;;;;;;6.27;100.00;97822.16;5055516;28;20052;-43
2023/11/28 10:05:23;;;;;;;40.97;24.15;;;;;;;6.34;100.00;97817.19;5055659;28;20052;-44
2023/11/28 10:07:56;;;;;;;42.58;24.45;;;;;;;6.41;100.00;97815.72;5055792;28;20371;-42
2023/11/28 10:10:27;;;;;;;42.72;25.92;;;;;;;6.18;100.00;97822.91;5054636;28;20461;-42
2023/11/28 10:12:55;;;;;;;43.63;25.48;;;;;;;6.03;100.00;97816.19;5055658;28;20045;-43
2023/11/28 10:15:25;;;;;;;47.75;26.42;;;;;;;5.99;100.00;97814.75;5055773;28;20053;-42
2023/11/28 10:17:55;;;;;;;43.95;26.27;;;;;;;6.13;100.00;97822.41;5055529;28;20049;-42
2023/11/28 10:20:27;;;;;;;59.17;30.17;;;;;;;5.91;100.00;97814.53;5055834;28;20049;-44
2023/11/28 10:22:58;;;;;;;54.78;28.30;;;;;;;5.78;100.00;97814.59;5056102;28;20064;-43
2023/11/28 10:25:27;;;;;;;53.03;28.83;;;;;;;5.68;100.00;97808.38;5087595;28;20073;-42
2023/11/28 10:27:59;;;;;;;52.00;27.90;;;;;;;5.65;100.00;97793.59;5055256;28;20053;-43
2023/11/28 10:30:29;;;;;;;52.85;27.63;;;;;;;5.46;100.00;97799.47;5054855;28;20045;-42
2023/11/28 10:32:59;;;;;;;52.78;28.08;;;;;;;5.43;100.00;97798.88;5055143;28;20088;-42
2023/11/28 10:35:42;;;;;;;55.20;28.50;;;;;;;5.78;100.00;97803.19;5056148;28;20049;-43
2023/11/28 10:38:17;;;;;;;49.25;26.10;;;;;;;5.96;100.00;97797.31;5056713;28;20132;-42
2023/11/28 10:40:48;;;;;;;49.38;26.63;;;;;;;6.11;100.00;97805.00;5056012;28;20426;-41
2023/11/28 10:43:17;;;;;;;42.45;23.73;;;;;;;5.85;100.00;97804.38;5056825;28;20405;-43
2023/11/28 10:45:46;;;;;;;44.47;24.42;;;;;;;5.95;100.00;97800.06;5056326;28;20140;-43
2023/11/28 10:48:15;;;;;;;42.33;24.42;;;;;;;5.98;100.00;97795.41;5055861;28;20110;-42
2023/11/28 10:50:44;;;;;;;45.17;23.98;;;;;;;5.96;100.00;97786.72;5055834;28;20049;-43
2023/11/28 10:53:13;;;;;;;40.60;23.70;;;;;;;6.20;100.00;97793.66;5055461;28;20418;-43
2023/11/28 10:55:49;;;;;;;44.08;23.50;;;;;;;6.21;100.00;97795.34;5056030;28;20056;-42
2023/11/28 10:58:17;;;;;;;40.83;23.42;;;;;;;6.04;100.00;97794.03;5056115;28;20087;-43
2023/11/28 11:00:52;;;;;;;41.45;24.65;;;;;;;6.22;100.00;97795.22;5054237;28;20494;-43
2023/11/28 11:03:24;;;;;;;43.40;23.60;;;;;;;6.31;100.00;97791.81;5054738;28;20136;-43
2023/11/28 11:05:53;;;;;;;40.90;23.95;;;;;;;6.34;100.00;97782.75;5054695;28;20068;-42
2023/11/28 11:08:23;;;;;;;44.92;24.60;;;;;;;6.29;100.00;97787.63;5054952;28;20053;-44
2023/11/28 11:10:54;;;;;;;40.00;23.35;;;;;;;6.35;100.00;97787.09;5055204;28;20052;-45
2023/11/28 11:13:35;;;;;;;39.75;23.33;;;;;;;6.41;100.00;97785.75;5055108;28;20468;-43
2023/11/28 11:16:12;;;;;;;40.28;23.48;;;;;;;6.48;100.00;97784.31;5054932;28;20051;-42
2023/11/28 11:18:43;;;;;;;41.22;23.65;;;;;;;6.49;100.00;97793.91;5056603;28;20052;-44
2023/11/28 11:21:18;;;;;;;42.13;23.65;;;;;;;6.52;100.00;97783.91;5056409;28;20048;-43
2023/11/28 11:23:50;;;;;;;42.75;24.88;;;;;;;6.50;100.00;97779.72;5057917;28;20118;-44
2023/11/28 11:26:29;;;;;;;46.58;24.25;;;;;;;6.64;100.00;97782.03;5058556;28;20104;-43